sensor_id;sensor_type;location;lat;lon;timestamp;temperature;humidity
32348;DHT22;18821;44.800;10.326;2023-06-14T00:00:52;19.00;62.30
32348;DHT22;18821;44.800;10.326;2023-06-14T00:03:18;19.10;62.80
32348;DHT22;18821;44.800;10.326;2023-06-14T00:05:48;19.20;61.40
32348;DHT22;18821;44.800;10.326;2023-06-14T00:08:14;19.20;61.40
32348;DHT22;18821;44.800;10.326;2023-06-14T00:10:40;19.20;61.00
32348;DHT22;18821;44.800;10.326;2023-06-14T00:13:09;19.20;62.40
32348;DHT22;18821;44.800;10.326;2023-06-14T00:15:35;19.20;67.70
32348;DHT22;18821;44.800;10.326;2023-06-14T00:18:02;19.10;68.80
32348;DHT22;18821;44.800;10.326;2023-06-14T00:20:29;19.10;70.00
32348;DHT22;18821;44.800;10.326;2023-06-14T00:22:56;19.10;71.10
32348;DHT22;18821;44.800;10.326;2023-06-14T00:25:23;19.10;72.60
32348;DHT22;18821;44.800;10.326;2023-06-14T00:27:52;19.20;71.90
32348;DHT22;18821;44.800;10.326;2023-06-14T00:30:19;19.20;70.60
32348;DHT22;18821;44.800;10.326;2023-06-14T00:32:45;19.20;69.80
32348;DHT22;18821;44.800;10.326;2023-06-14T00:35:11;19.20;69.30
32348;DHT22;18821;44.800;10.326;2023-06-14T00:37:38;19.20;69.80
32348;DHT22;18821;44.800;10.326;2023-06-14T00:40:04;19.10;70.00
32348;DHT22;18821;44.800;10.326;2023-06-14T00:42:30;19.10;69.60
32348;DHT22;18821;44.800;10.326;2023-06-14T00:44:56;19.00;67.00
32348;DHT22;18821;44.800;10.326;2023-06-14T00:47:24;19.00;71.80
32348;DHT22;18821;44.800;10.326;2023-06-14T00:49:51;18.90;75.30
32348;DHT22;18821;44.800;10.326;2023-06-14T00:52:18;18.90;77.10
32348;DHT22;18821;44.800;10.326;2023-06-14T00:54:44;18.90;78.40
32348;DHT22;18821;44.800;10.326;2023-06-14T00:57:12;18.90;76.30
32348;DHT22;18821;44.800;10.326;2023-06-14T00:59:45;18.90;71.70
32348;DHT22;18821;44.800;10.326;2023-06-14T01:02:12;18.90;72.50
32348;DHT22;18821;44.800;10.326;2023-06-14T01:04:39;18.90;71.00
32348;DHT22;18821;44.800;10.326;2023-06-14T01:13:02;18.80;79.10
32348;DHT22;18821;44.800;10.326;2023-06-14T01:15:31;18.80;81.10
32348;DHT22;18821;44.800;10.326;2023-06-14T01:17:58;18.80;81.20
32348;DHT22;18821;44.800;10.326;2023-06-14T01:20:31;18.80;80.90
32348;DHT22;18821;44.800;10.326;2023-06-14T01:22:58;18.80;78.00
32348;DHT22;18821;44.800;10.326;2023-06-14T01:25:24;18.80;75.70
32348;DHT22;18821;44.800;10.326;2023-06-14T01:28:03;18.80;75.90
32348;DHT22;18821;44.800;10.326;2023-06-14T01:30:29;18.90;74.10
32348;DHT22;18821;44.800;10.326;2023-06-14T01:32:56;18.80;72.00
32348;DHT22;18821;44.800;10.326;2023-06-14T01:35:23;18.80;69.40
32348;DHT22;18821;44.800;10.326;2023-06-14T01:37:49;18.80;72.30
32348;DHT22;18821;44.800;10.326;2023-06-14T01:40:18;18.80;71.40
32348;DHT22;18821;44.800;10.326;2023-06-14T01:42:47;18.70;69.80
32348;DHT22;18821;44.800;10.326;2023-06-14T01:45:14;18.70;74.20
32348;DHT22;18821;44.800;10.326;2023-06-14T01:47:40;18.60;72.10
32348;DHT22;18821;44.800;10.326;2023-06-14T01:50:07;18.60;80.50
32348;DHT22;18821;44.800;10.326;2023-06-14T01:52:33;18.60;78.80
32348;DHT22;18821;44.800;10.326;2023-06-14T01:54:59;18.60;77.40
32348;DHT22;18821;44.800;10.326;2023-06-14T01:57:28;18.60;74.00
32348;DHT22;18821;44.800;10.326;2023-06-14T01:59:55;18.60;73.30
32348;DHT22;18821;44.800;10.326;2023-06-14T02:02:21;18.50;74.60
32348;DHT22;18821;44.800;10.326;2023-06-14T02:04:47;18.60;79.20
32348;DHT22;18821;44.800;10.326;2023-06-14T02:07:13;18.60;78.00
32348;DHT22;18821;44.800;10.326;2023-06-14T02:09:41;18.60;77.20
32348;DHT22;18821;44.800;10.326;2023-06-14T02:12:08;18.50;76.20
32348;DHT22;18821;44.800;10.326;2023-06-14T02:14:34;18.60;78.20
32348;DHT22;18821;44.800;10.326;2023-06-14T02:17:00;18.50;79.90
32348;DHT22;18821;44.800;10.326;2023-06-14T02:19:26;18.50;75.40
32348;DHT22;18821;44.800;10.326;2023-06-14T02:21:53;18.50;77.70
32348;DHT22;18821;44.800;10.326;2023-06-14T02:24:18;18.50;78.40
32348;DHT22;18821;44.800;10.326;2023-06-14T02:26:45;18.40;78.80
32348;DHT22;18821;44.800;10.326;2023-06-14T02:29:14;18.50;81.70
32348;DHT22;18821;44.800;10.326;2023-06-14T02:31:41;18.40;81.00
32348;DHT22;18821;44.800;10.326;2023-06-14T02:34:07;18.50;81.40
32348;DHT22;18821;44.800;10.326;2023-06-14T02:36:36;18.40;79.90
32348;DHT22;18821;44.800;10.326;2023-06-14T02:39:08;18.40;83.90
32348;DHT22;18821;44.800;10.326;2023-06-14T02:41:37;18.40;84.70
32348;DHT22;18821;44.800;10.326;2023-06-14T02:44:04;18.40;84.20
32348;DHT22;18821;44.800;10.326;2023-06-14T02:46:29;18.40;84.70
32348;DHT22;18821;44.800;10.326;2023-06-14T02:48:55;18.40;85.50
32348;DHT22;18821;44.800;10.326;2023-06-14T02:51:21;18.40;86.50
32348;DHT22;18821;44.800;10.326;2023-06-14T02:53:47;18.40;87.30
32348;DHT22;18821;44.800;10.326;2023-06-14T02:56:13;18.40;84.60
32348;DHT22;18821;44.800;10.326;2023-06-14T02:58:40;18.40;86.70
32348;DHT22;18821;44.800;10.326;2023-06-14T03:01:07;18.30;89.30
32348;DHT22;18821;44.800;10.326;2023-06-14T03:03:34;18.30;90.80
32348;DHT22;18821;44.800;10.326;2023-06-14T03:06:00;18.30;91.60
32348;DHT22;18821;44.800;10.326;2023-06-14T03:08:32;18.30;91.50
32348;DHT22;18821;44.800;10.326;2023-06-14T03:11:06;18.20;92.10
32348;DHT22;18821;44.800;10.326;2023-06-14T03:13:35;18.30;91.90
32348;DHT22;18821;44.800;10.326;2023-06-14T03:16:02;18.20;92.20
32348;DHT22;18821;44.800;10.326;2023-06-14T03:18:30;18.30;92.90
32348;DHT22;18821;44.800;10.326;2023-06-14T03:21:02;18.20;93.60
32348;DHT22;18821;44.800;10.326;2023-06-14T03:23:29;18.20;92.60
32348;DHT22;18821;44.800;10.326;2023-06-14T03:25:56;18.10;93.30
32348;DHT22;18821;44.800;10.326;2023-06-14T03:28:22;18.20;94.20
32348;DHT22;18821;44.800;10.326;2023-06-14T03:30:49;18.20;94.50
32348;DHT22;18821;44.800;10.326;2023-06-14T03:33:15;18.20;94.00
32348;DHT22;18821;44.800;10.326;2023-06-14T03:35:41;18.30;92.60
32348;DHT22;18821;44.800;10.326;2023-06-14T03:38:09;18.30;92.60
32348;DHT22;18821;44.800;10.326;2023-06-14T03:40:35;18.30;91.70
32348;DHT22;18821;44.800;10.326;2023-06-14T03:43:03;18.30;91.30
32348;DHT22;18821;44.800;10.326;2023-06-14T03:45:29;18.30;90.60
32348;DHT22;18821;44.800;10.326;2023-06-14T03:47:57;18.40;88.70
32348;DHT22;18821;44.800;10.326;2023-06-14T03:50:24;18.40;87.40
32348;DHT22;18821;44.800;10.326;2023-06-14T03:52:50;18.40;85.60
32348;DHT22;18821;44.800;10.326;2023-06-14T03:55:18;18.40;83.80
32348;DHT22;18821;44.800;10.326;2023-06-14T03:57:44;18.40;85.00
32348;DHT22;18821;44.800;10.326;2023-06-14T04:00:14;18.40;82.80
32348;DHT22;18821;44.800;10.326;2023-06-14T04:02:40;18.40;83.10
32348;DHT22;18821;44.800;10.326;2023-06-14T04:05:08;18.50;86.40
32348;DHT22;18821;44.800;10.326;2023-06-14T04:07:37;18.50;83.90
32348;DHT22;18821;44.800;10.326;2023-06-14T04:10:12;18.60;82.60
32348;DHT22;18821;44.800;10.326;2023-06-14T04:12:38;18.50;82.30
32348;DHT22;18821;44.800;10.326;2023-06-14T04:15:05;18.60;81.90
32348;DHT22;18821;44.800;10.326;2023-06-14T04:17:36;18.60;80.80
32348;DHT22;18821;44.800;10.326;2023-06-14T04:20:03;18.60;78.10
32348;DHT22;18821;44.800;10.326;2023-06-14T04:22:31;18.70;75.00
32348;DHT22;18821;44.800;10.326;2023-06-14T04:24:58;18.80;75.20
32348;DHT22;18821;44.800;10.326;2023-06-14T04:27:26;18.80;71.70
32348;DHT22;18821;44.800;10.326;2023-06-14T04:29:53;18.80;70.20
32348;DHT22;18821;44.800;10.326;2023-06-14T04:32:24;18.90;69.90
32348;DHT22;18821;44.800;10.326;2023-06-14T04:34:56;19.00;72.90
32348;DHT22;18821;44.800;10.326;2023-06-14T04:37:23;19.20;66.70
32348;DHT22;18821;44.800;10.326;2023-06-14T04:39:50;19.30;63.20
32348;DHT22;18821;44.800;10.326;2023-06-14T04:42:17;19.30;57.20
32348;DHT22;18821;44.800;10.326;2023-06-14T04:44:46;19.20;59.30
32348;DHT22;18821;44.800;10.326;2023-06-14T04:47:14;19.40;59.40
32348;DHT22;18821;44.800;10.326;2023-06-14T04:49:42;19.50;58.00
32348;DHT22;18821;44.800;10.326;2023-06-14T04:52:08;19.80;55.80
32348;DHT22;18821;44.800;10.326;2023-06-14T04:54:39;19.80;43.10
32348;DHT22;18821;44.800;10.326;2023-06-14T04:57:09;19.80;45.50
32348;DHT22;18821;44.800;10.326;2023-06-14T04:59:40;19.90;43.10
32348;DHT22;18821;44.800;10.326;2023-06-14T05:02:07;19.90;41.50
32348;DHT22;18821;44.800;10.326;2023-06-14T05:04:34;19.90;38.70
32348;DHT22;18821;44.800;10.326;2023-06-14T05:07:00;20.00;38.70
32348;DHT22;18821;44.800;10.326;2023-06-14T05:09:28;20.10;35.50
32348;DHT22;18821;44.800;10.326;2023-06-14T05:11:54;20.20;30.40
32348;DHT22;18821;44.800;10.326;2023-06-14T05:14:21;20.20;36.20
32348;DHT22;18821;44.800;10.326;2023-06-14T05:16:49;20.30;34.40
32348;DHT22;18821;44.800;10.326;2023-06-14T05:19:15;20.30;30.00
32348;DHT22;18821;44.800;10.326;2023-06-14T05:21:43;20.30;33.30
32348;DHT22;18821;44.800;10.326;2023-06-14T05:24:09;20.30;27.60
32348;DHT22;18821;44.800;10.326;2023-06-14T05:26:35;20.30;33.10
32348;DHT22;18821;44.800;10.326;2023-06-14T05:29:01;20.40;29.30
32348;DHT22;18821;44.800;10.326;2023-06-14T05:31:28;20.50;31.90
32348;DHT22;18821;44.800;10.326;2023-06-14T05:33:54;20.60;28.00
32348;DHT22;18821;44.800;10.326;2023-06-14T05:36:23;20.60;23.20
32348;DHT22;18821;44.800;10.326;2023-06-14T05:38:49;20.50;21.60
32348;DHT22;18821;44.800;10.326;2023-06-14T05:41:16;20.50;21.60
32348;DHT22;18821;44.800;10.326;2023-06-14T05:43:42;20.50;29.50
32348;DHT22;18821;44.800;10.326;2023-06-14T05:46:08;20.60;25.10
32348;DHT22;18821;44.800;10.326;2023-06-14T05:48:34;20.60;21.60
32348;DHT22;18821;44.800;10.326;2023-06-14T05:51:00;20.30;25.10
32348;DHT22;18821;44.800;10.326;2023-06-14T05:53:26;20.40;25.60
32348;DHT22;18821;44.800;10.326;2023-06-14T05:55:52;20.40;27.60
32348;DHT22;18821;44.800;10.326;2023-06-14T05:58:21;20.30;28.20
32348;DHT22;18821;44.800;10.326;2023-06-14T06:00:47;20.20;29.20
32348;DHT22;18821;44.800;10.326;2023-06-14T06:03:13;20.20;30.00
32348;DHT22;18821;44.800;10.326;2023-06-14T06:05:39;20.30;30.00
32348;DHT22;18821;44.800;10.326;2023-06-14T06:08:06;20.50;28.90
32348;DHT22;18821;44.800;10.326;2023-06-14T06:10:32;20.80;25.00
32348;DHT22;18821;44.800;10.326;2023-06-14T06:12:58;21.00;14.00
32348;DHT22;18821;44.800;10.326;2023-06-14T06:15:24;21.10;7.70
32348;DHT22;18821;44.800;10.326;2023-06-14T06:17:50;21.10;9.60
32348;DHT22;18821;44.800;10.326;2023-06-14T06:20:16;21.10;13.20
32348;DHT22;18821;44.800;10.326;2023-06-14T06:22:43;21.30;8.90
32348;DHT22;18821;44.800;10.326;2023-06-14T06:25:09;21.40;2.10
32348;DHT22;18821;44.800;10.326;2023-06-14T06:27:35;21.60;3.70
32348;DHT22;18821;44.800;10.326;2023-06-14T06:30:03;21.70;1.00
32348;DHT22;18821;44.800;10.326;2023-06-14T06:32:29;21.70;1.00
32348;DHT22;18821;44.800;10.326;2023-06-14T06:34:55;21.70;1.00
32348;DHT22;18821;44.800;10.326;2023-06-14T06:37:21;21.80;1.00
32348;DHT22;18821;44.800;10.326;2023-06-14T06:39:47;21.90;1.00
32348;DHT22;18821;44.800;10.326;2023-06-14T06:42:13;22.10;1.00
32348;DHT22;18821;44.800;10.326;2023-06-14T06:44:42;22.20;1.00
32348;DHT22;18821;44.800;10.326;2023-06-14T06:47:08;22.20;1.00
32348;DHT22;18821;44.800;10.326;2023-06-14T06:49:35;22.40;1.00
32348;DHT22;18821;44.800;10.326;2023-06-14T06:52:02;22.40;1.00
32348;DHT22;18821;44.800;10.326;2023-06-14T06:54:29;21.90;1.00
32348;DHT22;18821;44.800;10.326;2023-06-14T06:56:55;21.80;1.00
32348;DHT22;18821;44.800;10.326;2023-06-14T06:59:21;21.60;1.00
32348;DHT22;18821;44.800;10.326;2023-06-14T07:01:47;21.60;1.00
32348;DHT22;18821;44.800;10.326;2023-06-14T07:04:13;21.60;1.00
32348;DHT22;18821;44.800;10.326;2023-06-14T07:06:39;22.00;1.00
32348;DHT22;18821;44.800;10.326;2023-06-14T07:09:05;22.40;1.00
32348;DHT22;18821;44.800;10.326;2023-06-14T07:11:34;22.70;1.00
32348;DHT22;18821;44.800;10.326;2023-06-14T07:14:00;22.90;1.00
32348;DHT22;18821;44.800;10.326;2023-06-14T07:16:25;22.60;1.00
32348;DHT22;18821;44.800;10.326;2023-06-14T07:18:52;22.30;1.00
32348;DHT22;18821;44.800;10.326;2023-06-14T07:21:18;22.30;1.00
32348;DHT22;18821;44.800;10.326;2023-06-14T07:23:44;22.60;1.00
32348;DHT22;18821;44.800;10.326;2023-06-14T07:26:10;22.30;1.00
32348;DHT22;18821;44.800;10.326;2023-06-14T07:28:36;22.50;1.00
32348;DHT22;18821;44.800;10.326;2023-06-14T07:31:02;22.50;1.00
32348;DHT22;18821;44.800;10.326;2023-06-14T07:33:28;22.40;1.00
32348;DHT22;18821;44.800;10.326;2023-06-14T07:35:54;22.30;1.00
32348;DHT22;18821;44.800;10.326;2023-06-14T07:38:20;22.50;1.00
32348;DHT22;18821;44.800;10.326;2023-06-14T07:40:46;22.60;1.00
32348;DHT22;18821;44.800;10.326;2023-06-14T07:43:12;22.90;1.00
32348;DHT22;18821;44.800;10.326;2023-06-14T07:45:38;23.10;1.00
32348;DHT22;18821;44.800;10.326;2023-06-14T07:48:04;23.40;1.00
32348;DHT22;18821;44.800;10.326;2023-06-14T07:50:30;23.70;1.00
32348;DHT22;18821;44.800;10.326;2023-06-14T07:52:56;23.70;1.00
32348;DHT22;18821;44.800;10.326;2023-06-14T07:55:22;23.70;1.00
32348;DHT22;18821;44.800;10.326;2023-06-14T07:57:48;23.40;1.00
32348;DHT22;18821;44.800;10.326;2023-06-14T08:00:15;23.00;1.00
32348;DHT22;18821;44.800;10.326;2023-06-14T08:02:43;22.60;1.00
32348;DHT22;18821;44.800;10.326;2023-06-14T08:05:10;22.10;1.00
32348;DHT22;18821;44.800;10.326;2023-06-14T08:07:39;21.90;1.00
32348;DHT22;18821;44.800;10.326;2023-06-14T08:10:06;22.00;1.00
32348;DHT22;18821;44.800;10.326;2023-06-14T08:12:33;22.30;1.00
32348;DHT22;18821;44.800;10.326;2023-06-14T08:14:59;22.40;1.00
32348;DHT22;18821;44.800;10.326;2023-06-14T08:17:25;22.50;1.00
32348;DHT22;18821;44.800;10.326;2023-06-14T08:19:51;22.40;1.00
32348;DHT22;18821;44.800;10.326;2023-06-14T08:22:17;22.20;1.00
32348;DHT22;18821;44.800;10.326;2023-06-14T08:24:43;22.10;1.00
32348;DHT22;18821;44.800;10.326;2023-06-14T08:27:10;22.10;1.00
32348;DHT22;18821;44.800;10.326;2023-06-14T08:29:36;22.00;1.00
32348;DHT22;18821;44.800;10.326;2023-06-14T08:32:04;21.90;1.00
32348;DHT22;18821;44.800;10.326;2023-06-14T08:34:30;21.70;2.60
32348;DHT22;18821;44.800;10.326;2023-06-14T08:36:56;21.60;10.30
32348;DHT22;18821;44.800;10.326;2023-06-14T08:39:22;21.50;14.90
32348;DHT22;18821;44.800;10.326;2023-06-14T08:41:48;21.50;18.10
32348;DHT22;18821;44.800;10.326;2023-06-14T08:44:17;21.60;15.60
32348;DHT22;18821;44.800;10.326;2023-06-14T08:46:44;21.50;16.90
32348;DHT22;18821;44.800;10.326;2023-06-14T08:49:12;21.50;18.00
32348;DHT22;18821;44.800;10.326;2023-06-14T08:51:38;21.40;23.60
32348;DHT22;18821;44.800;10.326;2023-06-14T08:54:06;21.80;10.20
32348;DHT22;18821;44.800;10.326;2023-06-14T08:56:32;22.00;5.40
32348;DHT22;18821;44.800;10.326;2023-06-14T08:59:00;22.10;1.50
32348;DHT22;18821;44.800;10.326;2023-06-14T09:01:34;22.20;1.00
32348;DHT22;18821;44.800;10.326;2023-06-14T09:04:00;22.30;3.20
32348;DHT22;18821;44.800;10.326;2023-06-14T09:06:28;22.80;1.00
32348;DHT22;18821;44.800;10.326;2023-06-14T09:08:55;23.30;1.00
32348;DHT22;18821;44.800;10.326;2023-06-14T09:11:24;23.70;1.00
32348;DHT22;18821;44.800;10.326;2023-06-14T09:13:52;24.00;1.00
32348;DHT22;18821;44.800;10.326;2023-06-14T09:16:18;23.90;1.00
32348;DHT22;18821;44.800;10.326;2023-06-14T09:18:45;24.00;1.00
32348;DHT22;18821;44.800;10.326;2023-06-14T09:21:17;24.40;1.00
32348;DHT22;18821;44.800;10.326;2023-06-14T09:23:45;24.70;1.00
32348;DHT22;18821;44.800;10.326;2023-06-14T09:28:44;25.10;1.00
32348;DHT22;18821;44.800;10.326;2023-06-14T09:31:12;25.90;1.00
32348;DHT22;18821;44.800;10.326;2023-06-14T09:33:41;26.00;1.00
32348;DHT22;18821;44.800;10.326;2023-06-14T09:36:17;26.40;1.00
32348;DHT22;18821;44.800;10.326;2023-06-14T09:39:03;26.40;99.90
32348;DHT22;18821;44.800;10.326;2023-06-14T09:41:35;26.60;99.90
32348;DHT22;18821;44.800;10.326;2023-06-14T09:44:03;26.90;99.90
32348;DHT22;18821;44.800;10.326;2023-06-14T09:46:30;27.20;99.90
32348;DHT22;18821;44.800;10.326;2023-06-14T09:48:57;27.20;99.90
32348;DHT22;18821;44.800;10.326;2023-06-14T09:51:24;27.60;99.90
32348;DHT22;18821;44.800;10.326;2023-06-14T09:53:50;27.20;99.90
32348;DHT22;18821;44.800;10.326;2023-06-14T09:56:23;27.00;99.90
32348;DHT22;18821;44.800;10.326;2023-06-14T09:58:59;27.10;99.90
32348;DHT22;18821;44.800;10.326;2023-06-14T10:01:26;26.70;99.90
32348;DHT22;18821;44.800;10.326;2023-06-14T10:04:04;25.90;99.90
32348;DHT22;18821;44.800;10.326;2023-06-14T10:06:34;25.70;99.90
32348;DHT22;18821;44.800;10.326;2023-06-14T10:09:04;25.80;99.90
32348;DHT22;18821;44.800;10.326;2023-06-14T10:11:31;25.60;99.90
32348;DHT22;18821;44.800;10.326;2023-06-14T10:13:58;25.10;99.90
32348;DHT22;18821;44.800;10.326;2023-06-14T10:16:37;25.10;99.90
32348;DHT22;18821;44.800;10.326;2023-06-14T10:19:46;24.50;1.00
32348;DHT22;18821;44.800;10.326;2023-06-14T10:22:09;24.40;1.00
32348;DHT22;18821;44.800;10.326;2023-06-14T10:24:44;24.40;1.00
32348;DHT22;18821;44.800;10.326;2023-06-14T10:27:13;24.20;1.00
32348;DHT22;18821;44.800;10.326;2023-06-14T10:32:24;24.20;1.00
32348;DHT22;18821;44.800;10.326;2023-06-14T10:35:06;24.30;1.00
32348;DHT22;18821;44.800;10.326;2023-06-14T10:37:33;23.90;1.00
32348;DHT22;18821;44.800;10.326;2023-06-14T10:39:59;23.90;1.00
32348;DHT22;18821;44.800;10.326;2023-06-14T10:42:32;23.60;1.00
32348;DHT22;18821;44.800;10.326;2023-06-14T10:45:00;23.60;1.00
32348;DHT22;18821;44.800;10.326;2023-06-14T10:47:31;23.80;1.00
32348;DHT22;18821;44.800;10.326;2023-06-14T10:52:34;24.20;1.00
32348;DHT22;18821;44.800;10.326;2023-06-14T10:55:05;24.70;1.00
32348;DHT22;18821;44.800;10.326;2023-06-14T10:57:33;24.60;1.00
32348;DHT22;18821;44.800;10.326;2023-06-14T11:00:00;24.60;1.00
32348;DHT22;18821;44.800;10.326;2023-06-14T11:05:15;25.40;1.00
32348;DHT22;18821;44.800;10.326;2023-06-14T11:10:44;24.80;1.00
32348;DHT22;18821;44.800;10.326;2023-06-14T11:13:11;25.10;99.90
32348;DHT22;18821;44.800;10.326;2023-06-14T11:15:38;25.00;99.90
32348;DHT22;18821;44.800;10.326;2023-06-14T11:18:05;25.10;99.90
32348;DHT22;18821;44.800;10.326;2023-06-14T11:20:33;25.40;99.90
32348;DHT22;18821;44.800;10.326;2023-06-14T11:23:00;25.10;99.90
32348;DHT22;18821;44.800;10.326;2023-06-14T11:25:26;25.50;99.90
32348;DHT22;18821;44.800;10.326;2023-06-14T11:27:54;25.50;99.90
32348;DHT22;18821;44.800;10.326;2023-06-14T11:30:22;25.50;99.90
32348;DHT22;18821;44.800;10.326;2023-06-14T11:32:49;25.50;99.90
32348;DHT22;18821;44.800;10.326;2023-06-14T11:35:17;25.60;99.90
32348;DHT22;18821;44.800;10.326;2023-06-14T11:37:44;25.50;97.40
32348;DHT22;18821;44.800;10.326;2023-06-14T11:40:11;25.30;99.90
32348;DHT22;18821;44.800;10.326;2023-06-14T11:42:39;25.10;99.90
32348;DHT22;18821;44.800;10.326;2023-06-14T11:45:09;25.30;99.90
32348;DHT22;18821;44.800;10.326;2023-06-14T11:47:37;25.20;99.90
32348;DHT22;18821;44.800;10.326;2023-06-14T11:50:05;25.20;99.90
32348;DHT22;18821;44.800;10.326;2023-06-14T11:52:32;25.50;99.90
32348;DHT22;18821;44.800;10.326;2023-06-14T11:54:58;25.40;99.90
32348;DHT22;18821;44.800;10.326;2023-06-14T11:57:25;25.10;99.90
32348;DHT22;18821;44.800;10.326;2023-06-14T11:59:51;25.30;99.90
32348;DHT22;18821;44.800;10.326;2023-06-14T12:02:18;25.10;99.90
32348;DHT22;18821;44.800;10.326;2023-06-14T12:04:47;24.70;99.90
32348;DHT22;18821;44.800;10.326;2023-06-14T12:07:15;25.20;99.90
32348;DHT22;18821;44.800;10.326;2023-06-14T12:12:24;25.80;82.40
32348;DHT22;18821;44.800;10.326;2023-06-14T12:14:58;26.00;1.00
32348;DHT22;18821;44.800;10.326;2023-06-14T12:17:24;26.10;99.90
32348;DHT22;18821;44.800;10.326;2023-06-14T12:19:50;26.30;99.90
32348;DHT22;18821;44.800;10.326;2023-06-14T12:22:17;26.30;99.90
32348;DHT22;18821;44.800;10.326;2023-06-14T12:24:44;26.40;99.90
32348;DHT22;18821;44.800;10.326;2023-06-14T12:27:10;26.00;99.90
32348;DHT22;18821;44.800;10.326;2023-06-14T12:29:38;25.90;99.90
32348;DHT22;18821;44.800;10.326;2023-06-14T12:32:04;25.80;99.90
32348;DHT22;18821;44.800;10.326;2023-06-14T12:34:30;26.00;99.90
32348;DHT22;18821;44.800;10.326;2023-06-14T12:36:56;25.70;99.90
32348;DHT22;18821;44.800;10.326;2023-06-14T12:39:23;25.50;99.90
32348;DHT22;18821;44.800;10.326;2023-06-14T12:41:50;26.10;99.90
32348;DHT22;18821;44.800;10.326;2023-06-14T12:44:16;26.60;99.90
32348;DHT22;18821;44.800;10.326;2023-06-14T12:46:42;26.40;99.90
32348;DHT22;18821;44.800;10.326;2023-06-14T12:49:11;26.40;99.90
32348;DHT22;18821;44.800;10.326;2023-06-14T12:51:40;26.20;99.90
32348;DHT22;18821;44.800;10.326;2023-06-14T12:54:06;26.50;99.90
32348;DHT22;18821;44.800;10.326;2023-06-14T12:56:32;26.90;99.90
32348;DHT22;18821;44.800;10.326;2023-06-14T12:58:59;27.10;99.90
32348;DHT22;18821;44.800;10.326;2023-06-14T13:01:25;26.40;99.90
32348;DHT22;18821;44.800;10.326;2023-06-14T13:03:51;26.20;99.90
32348;DHT22;18821;44.800;10.326;2023-06-14T13:06:21;26.00;99.90
32348;DHT22;18821;44.800;10.326;2023-06-14T13:08:48;25.80;99.90
32348;DHT22;18821;44.800;10.326;2023-06-14T13:11:14;25.60;99.90
32348;DHT22;18821;44.800;10.326;2023-06-14T13:13:40;25.10;99.90
32348;DHT22;18821;44.800;10.326;2023-06-14T13:16:06;25.30;99.90
32348;DHT22;18821;44.800;10.326;2023-06-14T13:18:33;25.20;99.90
32348;DHT22;18821;44.800;10.326;2023-06-14T13:20:59;25.50;99.90
32348;DHT22;18821;44.800;10.326;2023-06-14T13:23:25;25.80;99.90
32348;DHT22;18821;44.800;10.326;2023-06-14T13:25:51;26.00;99.90
32348;DHT22;18821;44.800;10.326;2023-06-14T13:28:17;26.20;99.90
32348;DHT22;18821;44.800;10.326;2023-06-14T13:30:43;26.20;99.90
32348;DHT22;18821;44.800;10.326;2023-06-14T13:33:09;25.90;99.90
32348;DHT22;18821;44.800;10.326;2023-06-14T13:35:35;26.10;99.90
32348;DHT22;18821;44.800;10.326;2023-06-14T13:38:01;26.30;99.90
32348;DHT22;18821;44.800;10.326;2023-06-14T13:40:27;26.30;99.90
32348;DHT22;18821;44.800;10.326;2023-06-14T13:42:53;26.50;99.90
32348;DHT22;18821;44.800;10.326;2023-06-14T13:45:19;26.30;99.90
32348;DHT22;18821;44.800;10.326;2023-06-14T13:47:45;26.00;99.90
32348;DHT22;18821;44.800;10.326;2023-06-14T13:50:14;26.40;99.90
32348;DHT22;18821;44.800;10.326;2023-06-14T13:52:41;26.60;99.90
32348;DHT22;18821;44.800;10.326;2023-06-14T13:55:07;26.70;99.90
32348;DHT22;18821;44.800;10.326;2023-06-14T13:57:33;26.70;99.90
32348;DHT22;18821;44.800;10.326;2023-06-14T13:59:59;26.40;99.90
32348;DHT22;18821;44.800;10.326;2023-06-14T14:02:27;26.60;99.90
32348;DHT22;18821;44.800;10.326;2023-06-14T14:04:55;26.70;99.90
32348;DHT22;18821;44.800;10.326;2023-06-14T14:07:21;26.70;99.90
32348;DHT22;18821;44.800;10.326;2023-06-14T14:09:47;26.80;99.90
32348;DHT22;18821;44.800;10.326;2023-06-14T14:12:14;26.80;99.90
32348;DHT22;18821;44.800;10.326;2023-06-14T14:14:42;26.90;99.90
32348;DHT22;18821;44.800;10.326;2023-06-14T14:17:08;26.70;99.90
32348;DHT22;18821;44.800;10.326;2023-06-14T14:19:34;26.50;99.90
32348;DHT22;18821;44.800;10.326;2023-06-14T14:22:02;26.70;99.90
32348;DHT22;18821;44.800;10.326;2023-06-14T14:24:28;26.70;99.90
32348;DHT22;18821;44.800;10.326;2023-06-14T14:26:54;26.60;99.90
32348;DHT22;18821;44.800;10.326;2023-06-14T14:29:20;26.40;99.90
32348;DHT22;18821;44.800;10.326;2023-06-14T14:31:46;26.10;99.90
32348;DHT22;18821;44.800;10.326;2023-06-14T14:34:12;26.40;99.90
32348;DHT22;18821;44.800;10.326;2023-06-14T14:36:38;26.60;99.90
32348;DHT22;18821;44.800;10.326;2023-06-14T14:39:08;26.50;99.90
32348;DHT22;18821;44.800;10.326;2023-06-14T14:41:34;26.60;99.90
32348;DHT22;18821;44.800;10.326;2023-06-14T14:44:00;26.70;99.90
32348;DHT22;18821;44.800;10.326;2023-06-14T14:46:27;26.60;99.90
32348;DHT22;18821;44.800;10.326;2023-06-14T14:48:53;26.60;99.90
32348;DHT22;18821;44.800;10.326;2023-06-14T14:51:19;26.40;99.90
32348;DHT22;18821;44.800;10.326;2023-06-14T14:53:45;26.50;99.90
32348;DHT22;18821;44.800;10.326;2023-06-14T14:56:11;26.60;99.90
32348;DHT22;18821;44.800;10.326;2023-06-14T14:58:38;26.80;99.90
32348;DHT22;18821;44.800;10.326;2023-06-14T15:01:04;26.80;99.90
32348;DHT22;18821;44.800;10.326;2023-06-14T15:03:31;27.00;99.90
32348;DHT22;18821;44.800;10.326;2023-06-14T15:05:57;27.10;99.90
32348;DHT22;18821;44.800;10.326;2023-06-14T15:08:23;27.10;99.90
32348;DHT22;18821;44.800;10.326;2023-06-14T15:10:49;27.10;99.90
32348;DHT22;18821;44.800;10.326;2023-06-14T15:13:15;26.90;99.90
32348;DHT22;18821;44.800;10.326;2023-06-14T15:15:41;26.60;99.90
32348;DHT22;18821;44.800;10.326;2023-06-14T15:18:07;26.70;99.90
32348;DHT22;18821;44.800;10.326;2023-06-14T15:20:33;26.70;99.90
32348;DHT22;18821;44.800;10.326;2023-06-14T15:22:59;26.70;99.90
32348;DHT22;18821;44.800;10.326;2023-06-14T15:25:26;26.40;99.90
32348;DHT22;18821;44.800;10.326;2023-06-14T15:27:53;26.30;99.90
32348;DHT22;18821;44.800;10.326;2023-06-14T15:30:19;26.20;99.90
32348;DHT22;18821;44.800;10.326;2023-06-14T15:32:45;26.20;99.90
32348;DHT22;18821;44.800;10.326;2023-06-14T15:35:11;26.10;99.90
32348;DHT22;18821;44.800;10.326;2023-06-14T15:37:38;26.20;99.90
32348;DHT22;18821;44.800;10.326;2023-06-14T15:40:05;26.30;99.90
32348;DHT22;18821;44.800;10.326;2023-06-14T15:42:31;26.40;99.90